Terminal Aerodrome Forecast
Issued by NWS

Current Version | Previous Version | Graphics & Text | Print | Product List | Glossary On
Versions: 1 2 3 4 5 6 7 8 9 10 11 12 13 14 15 16 17 18 19 20 21 22 23
000
FTUS41 KRLX 290231 AAA
TAFCKB
TAF AMD
KCKB 290231Z 2903/2924 25004KT P6SM SCT060
     FM290600 00000KT 5SM BR FEW070
     FM290800 00000KT 1/2SM FG VV001
     FM291100 VRB03KT 1SM BR BKN002
     FM291200 19004KT 3SM BR SCT005 SCT150
     FM291300 19004KT P6SM SCT140
     FM292000 21005KT P6SM BKN080=

USA.gov is the U.S. government's official web portal to all federal, state and local government web resources and services.